Goettingen, Germany

11:43 AM CEST on October 20, 2014 (GMT +0200)
göttingen,de | Change Station
CLOSE
Current Station
Personal Weather Station
Location: Göttingen, NIEDERSACHSEN
Elevation: 741 ft
Nearby Weather Stations

Elev 741 ft 51.53 °N, 9.86 °E | Updated 2 seconds ago

Mostly Cloudy
Mostly Cloudy
59.7 °F
Feels Like 59.7 °F
N
8.3
Wind Variable Wind from West
Gusts 12.3 mph

Today
High -- | Low -- °F
--% Chance of Precip.
Yesterday
High -- | Low -- °F
Precip. -- in
7:52 AM 6:16 PM
Waning Crescent, 12% visible
Pressure 30.01 in
Visibility 6.2 miles
Clouds Mostly Cloudy 4500 ft
Dew Point 48 °F
Humidity 65%
Rainfall 0.00 in
Snow Depth Not available.
UV 1.0 out of 12
Pollen Not available.
Air Quality Not available.
Flu Activity Not available.
METAR EDVK 200920Z 23014KT 9999 BKN045 15/10 Q1016 RMK ATIS L

More Conditions Fewer Conditions

Pressure 30.01 in
Visibility 6.2 miles
Clouds Mostly Cloudy 4500 ft
Dew Point 48 °F
Humidity 65%
Rainfall 0.00 in
Snow Depth Not available.
UV 1.0 out of 12
Pollen Not available.
Air Quality Not available.
Flu Activity Not available.
METAR EDVK 200920Z 23014KT 9999 BKN045 15/10 Q1016 RMK ATIS L

More Conditions Fewer Conditions

10-Day Weather Forecast

Almanac

Astronomy

Oct. 20, 2014 Rise Set
Actual Time 7:52 AM CEST 6:16 PM CEST
Civil Twilight 7:18 AM CEST 6:50 PM CEST
Nautical Twilight 6:39 AM CEST 7:29 PM CEST
Astronomical Twilight 6:00 AM CEST 8:08 PM CEST
Moon 4:02 AM CEST 4:50 PM CEST
Length of Visible Light 11h 32m
Length of Day
10h 24m
Tomorrow will be 3m 46s shorter.
Waning Crescent, 12% of the Moon is Illuminated
Today
Waning Crescent
Oct 23
New
Oct 30
First Quarter
Nov 6
Full
Nov 14
Last Quarter

Yesterday's Extremes

Country Highs Country Lows

Community

WunderPhotos

Upload Photos

1,763,325 photos uploaded!

Nearby

Snow Depth

Not available.

Earthquake Activity

City Distance Mag. Time & Date
No recent earthquake activity has been reported nearby.
Minimum magnitude displayed is 2.5.

Coastal Water Temperatures

Place Temperature
No Stations Reporting

Nearby Weather Stations